sensor_id;sensor_type;location;lat;lon;timestamp;P1;durP1;ratioP1;P2;durP2;ratioP2
7179;SDS011;3631;42.152;24.756;2024-02-16T00:02:26;7.27;;;5.87;;
7179;SDS011;3631;42.152;24.756;2024-02-16T00:04:53;5.83;;;5.23;;
7179;SDS011;3631;42.152;24.756;2024-02-16T00:07:20;5.40;;;4.87;;
7179;SDS011;3631;42.152;24.756;2024-02-16T00:09:47;5.67;;;4.93;;
7179;SDS011;3631;42.152;24.756;2024-02-16T00:12:15;5.13;;;4.67;;
7179;SDS011;3631;42.152;24.756;2024-02-16T00:14:42;5.73;;;5.13;;
7179;SDS011;3631;42.152;24.756;2024-02-16T00:17:11;6.17;;;5.17;;
7179;SDS011;3631;42.152;24.756;2024-02-16T00:19:38;7.20;;;5.20;;
7179;SDS011;3631;42.152;24.756;2024-02-16T00:22:05;5.63;;;5.13;;
7179;SDS011;3631;42.152;24.756;2024-02-16T00:24:33;5.53;;;4.97;;
7179;SDS011;3631;42.152;24.756;2024-02-16T00:27:01;6.30;;;5.70;;
7179;SDS011;3631;42.152;24.756;2024-02-16T00:29:30;6.20;;;5.63;;
7179;SDS011;3631;42.152;24.756;2024-02-16T00:31:57;5.67;;;5.17;;
7179;SDS011;3631;42.152;24.756;2024-02-16T00:34:24;6.67;;;5.80;;
7179;SDS011;3631;42.152;24.756;2024-02-16T00:36:51;6.00;;;5.40;;
7179;SDS011;3631;42.152;24.756;2024-02-16T00:39:18;5.47;;;4.97;;
7179;SDS011;3631;42.152;24.756;2024-02-16T00:41:45;7.73;;;5.10;;
7179;SDS011;3631;42.152;24.756;2024-02-16T00:44:12;5.87;;;5.27;;
7179;SDS011;3631;42.152;24.756;2024-02-16T00:46:40;6.13;;;5.50;;
7179;SDS011;3631;42.152;24.756;2024-02-16T00:49:07;9.60;;;5.63;;
7179;SDS011;3631;42.152;24.756;2024-02-16T00:51:35;7.33;;;5.57;;
7179;SDS011;3631;42.152;24.756;2024-02-16T00:54:02;6.67;;;5.10;;
7179;SDS011;3631;42.152;24.756;2024-02-16T00:56:30;6.90;;;5.43;;
7179;SDS011;3631;42.152;24.756;2024-02-16T00:58:56;5.30;;;4.80;;
7179;SDS011;3631;42.152;24.756;2024-02-16T01:01:23;6.97;;;5.10;;
7179;SDS011;3631;42.152;24.756;2024-02-16T01:03:52;6.83;;;5.07;;
7179;SDS011;3631;42.152;24.756;2024-02-16T01:06:19;6.00;;;5.07;;
7179;SDS011;3631;42.152;24.756;2024-02-16T01:08:46;6.97;;;5.27;;
7179;SDS011;3631;42.152;24.756;2024-02-16T01:11:13;5.40;;;4.90;;
7179;SDS011;3631;42.152;24.756;2024-02-16T01:13:40;6.40;;;5.67;;
7179;SDS011;3631;42.152;24.756;2024-02-16T01:16:08;7.63;;;5.10;;
7179;SDS011;3631;42.152;24.756;2024-02-16T01:18:35;6.17;;;5.50;;
7179;SDS011;3631;42.152;24.756;2024-02-16T01:21:04;7.10;;;4.77;;
7179;SDS011;3631;42.152;24.756;2024-02-16T01:23:31;6.50;;;5.23;;
7179;SDS011;3631;42.152;24.756;2024-02-16T01:25:58;5.53;;;5.03;;
7179;SDS011;3631;42.152;24.756;2024-02-16T01:28:24;5.67;;;5.10;;
7179;SDS011;3631;42.152;24.756;2024-02-16T01:30:51;6.93;;;5.50;;
7179;SDS011;3631;42.152;24.756;2024-02-16T01:33:21;6.00;;;4.97;;
7179;SDS011;3631;42.152;24.756;2024-02-16T01:35:48;6.50;;;5.47;;
7179;SDS011;3631;42.152;24.756;2024-02-16T01:38:16;5.40;;;4.90;;
7179;SDS011;3631;42.152;24.756;2024-02-16T01:40:43;7.10;;;4.87;;
7179;SDS011;3631;42.152;24.756;2024-02-16T01:43:10;5.03;;;4.50;;
7179;SDS011;3631;42.152;24.756;2024-02-16T01:45:37;5.97;;;4.90;;
7179;SDS011;3631;42.152;24.756;2024-02-16T01:48:04;7.07;;;5.17;;
7179;SDS011;3631;42.152;24.756;2024-02-16T01:50:32;5.07;;;4.57;;
7179;SDS011;3631;42.152;24.756;2024-02-16T01:52:59;5.23;;;4.63;;
7179;SDS011;3631;42.152;24.756;2024-02-16T01:55:27;5.87;;;4.40;;
7179;SDS011;3631;42.152;24.756;2024-02-16T01:57:54;6.63;;;4.70;;
7179;SDS011;3631;42.152;24.756;2024-02-16T02:00:21;6.83;;;4.83;;
7179;SDS011;3631;42.152;24.756;2024-02-16T02:02:48;5.77;;;5.23;;
7179;SDS011;3631;42.152;24.756;2024-02-16T02:05:15;6.33;;;4.37;;
7179;SDS011;3631;42.152;24.756;2024-02-16T02:07:42;4.77;;;4.37;;
7179;SDS011;3631;42.152;24.756;2024-02-16T02:10:10;5.43;;;4.43;;
7179;SDS011;3631;42.152;24.756;2024-02-16T02:12:39;4.73;;;3.97;;
7179;SDS011;3631;42.152;24.756;2024-02-16T02:15:07;5.17;;;4.70;;
7179;SDS011;3631;42.152;24.756;2024-02-16T02:17:35;6.00;;;5.30;;
7179;SDS011;3631;42.152;24.756;2024-02-16T02:20:01;5.33;;;4.53;;
7179;SDS011;3631;42.152;24.756;2024-02-16T02:22:30;4.63;;;4.23;;
7179;SDS011;3631;42.152;24.756;2024-02-16T02:24:58;6.07;;;5.27;;
7179;SDS011;3631;42.152;24.756;2024-02-16T02:27:24;7.83;;;4.77;;
7179;SDS011;3631;42.152;24.756;2024-02-16T02:29:51;8.33;;;5.13;;
7179;SDS011;3631;42.152;24.756;2024-02-16T02:32:18;6.77;;;4.80;;
7179;SDS011;3631;42.152;24.756;2024-02-16T02:34:45;8.37;;;5.40;;
7179;SDS011;3631;42.152;24.756;2024-02-16T02:37:12;4.80;;;4.40;;
7179;SDS011;3631;42.152;24.756;2024-02-16T02:39:40;5.27;;;4.63;;
7179;SDS011;3631;42.152;24.756;2024-02-16T02:42:09;6.00;;;5.40;;
7179;SDS011;3631;42.152;24.756;2024-02-16T02:44:36;7.70;;;4.97;;
7179;SDS011;3631;42.152;24.756;2024-02-16T02:47:03;7.83;;;5.13;;
7179;SDS011;3631;42.152;24.756;2024-02-16T02:49:30;5.73;;;4.60;;
7179;SDS011;3631;42.152;24.756;2024-02-16T02:51:58;7.03;;;4.90;;
7179;SDS011;3631;42.152;24.756;2024-02-16T02:54:25;6.63;;;4.70;;
7179;SDS011;3631;42.152;24.756;2024-02-16T02:56:53;4.60;;;4.20;;
7179;SDS011;3631;42.152;24.756;2024-02-16T02:59:20;5.27;;;4.30;;
7179;SDS011;3631;42.152;24.756;2024-02-16T03:01:47;7.53;;;5.10;;
7179;SDS011;3631;42.152;24.756;2024-02-16T03:04:14;5.03;;;4.53;;
7179;SDS011;3631;42.152;24.756;2024-02-16T03:06:40;9.70;;;6.20;;
7179;SDS011;3631;42.152;24.756;2024-02-16T03:09:07;7.07;;;4.83;;
7179;SDS011;3631;42.152;24.756;2024-02-16T03:11:34;5.73;;;5.03;;
7179;SDS011;3631;42.152;24.756;2024-02-16T03:14:03;6.03;;;5.43;;
7179;SDS011;3631;42.152;24.756;2024-02-16T03:16:31;6.23;;;5.03;;
7179;SDS011;3631;42.152;24.756;2024-02-16T03:18:58;5.43;;;4.83;;
7179;SDS011;3631;42.152;24.756;2024-02-16T03:21:25;6.97;;;5.00;;
7179;SDS011;3631;42.152;24.756;2024-02-16T03:23:52;5.33;;;4.50;;
7179;SDS011;3631;42.152;24.756;2024-02-16T03:26:19;5.20;;;4.57;;
7179;SDS011;3631;42.152;24.756;2024-02-16T03:28:46;6.17;;;4.70;;
7179;SDS011;3631;42.152;24.756;2024-02-16T03:31:19;10.83;;;4.57;;
7179;SDS011;3631;42.152;24.756;2024-02-16T03:33:47;5.90;;;5.13;;
7179;SDS011;3631;42.152;24.756;2024-02-16T03:36:14;5.53;;;5.00;;
7179;SDS011;3631;42.152;24.756;2024-02-16T03:38:41;5.80;;;4.57;;
7179;SDS011;3631;42.152;24.756;2024-02-16T03:41:12;5.23;;;4.73;;
7179;SDS011;3631;42.152;24.756;2024-02-16T03:43:39;5.83;;;4.43;;
7179;SDS011;3631;42.152;24.756;2024-02-16T03:46:07;4.73;;;4.33;;
7179;SDS011;3631;42.152;24.756;2024-02-16T03:48:36;5.40;;;4.90;;
7179;SDS011;3631;42.152;24.756;2024-02-16T03:51:03;6.57;;;4.67;;
7179;SDS011;3631;42.152;24.756;2024-02-16T03:53:30;5.37;;;4.33;;
7179;SDS011;3631;42.152;24.756;2024-02-16T03:55:57;4.83;;;4.20;;
7179;SDS011;3631;42.152;24.756;2024-02-16T03:58:24;5.43;;;4.17;;
7179;SDS011;3631;42.152;24.756;2024-02-16T04:00:52;5.03;;;4.57;;
7179;SDS011;3631;42.152;24.756;2024-02-16T04:03:19;5.50;;;5.00;;
7179;SDS011;3631;42.152;24.756;2024-02-16T04:05:47;5.70;;;5.03;;
7179;SDS011;3631;42.152;24.756;2024-02-16T04:08:14;5.20;;;4.60;;
7179;SDS011;3631;42.152;24.756;2024-02-16T04:10:41;5.20;;;4.77;;
7179;SDS011;3631;42.152;24.756;2024-02-16T04:13:08;5.37;;;4.53;;
7179;SDS011;3631;42.152;24.756;2024-02-16T04:15:35;6.53;;;4.57;;
7179;SDS011;3631;42.152;24.756;2024-02-16T04:18:02;5.30;;;4.60;;
7179;SDS011;3631;42.152;24.756;2024-02-16T04:20:29;6.20;;;4.97;;
7179;SDS011;3631;42.152;24.756;2024-02-16T04:22:57;8.80;;;4.57;;
7179;SDS011;3631;42.152;24.756;2024-02-16T04:25:24;6.03;;;4.83;;
7179;SDS011;3631;42.152;24.756;2024-02-16T04:27:51;6.50;;;4.53;;
7179;SDS011;3631;42.152;24.756;2024-02-16T04:30:18;5.47;;;4.97;;
7179;SDS011;3631;42.152;24.756;2024-02-16T04:32:45;5.73;;;4.73;;
7179;SDS011;3631;42.152;24.756;2024-02-16T04:35:13;5.30;;;4.60;;
7179;SDS011;3631;42.152;24.756;2024-02-16T04:37:40;7.37;;;4.37;;
7179;SDS011;3631;42.152;24.756;2024-02-16T04:40:09;5.33;;;4.70;;
7179;SDS011;3631;42.152;24.756;2024-02-16T04:42:37;6.57;;;4.47;;
7179;SDS011;3631;42.152;24.756;2024-02-16T04:45:06;8.00;;;5.00;;
7179;SDS011;3631;42.152;24.756;2024-02-16T04:47:33;6.27;;;4.80;;
7179;SDS011;3631;42.152;24.756;2024-02-16T04:50:00;5.17;;;4.77;;
7179;SDS011;3631;42.152;24.756;2024-02-16T04:52:28;7.80;;;4.63;;
7179;SDS011;3631;42.152;24.756;2024-02-16T04:54:55;6.70;;;5.00;;
7179;SDS011;3631;42.152;24.756;2024-02-16T04:57:23;6.40;;;5.13;;
7179;SDS011;3631;42.152;24.756;2024-02-16T04:59:50;6.20;;;5.57;;
7179;SDS011;3631;42.152;24.756;2024-02-16T05:02:17;7.60;;;5.93;;
7179;SDS011;3631;42.152;24.756;2024-02-16T05:04:44;8.73;;;5.70;;
7179;SDS011;3631;42.152;24.756;2024-02-16T05:07:11;7.57;;;5.07;;
7179;SDS011;3631;42.152;24.756;2024-02-16T05:09:37;5.67;;;5.17;;
7179;SDS011;3631;42.152;24.756;2024-02-16T05:12:05;6.23;;;5.27;;
7179;SDS011;3631;42.152;24.756;2024-02-16T05:14:35;8.60;;;4.77;;
7179;SDS011;3631;42.152;24.756;2024-02-16T05:17:02;8.73;;;5.10;;
7179;SDS011;3631;42.152;24.756;2024-02-16T05:19:32;15.07;;;5.47;;
7179;SDS011;3631;42.152;24.756;2024-02-16T05:21:59;9.47;;;6.10;;
7179;SDS011;3631;42.152;24.756;2024-02-16T05:24:26;7.27;;;5.30;;
7179;SDS011;3631;42.152;24.756;2024-02-16T05:26:52;6.07;;;5.27;;
7179;SDS011;3631;42.152;24.756;2024-02-16T05:29:20;5.03;;;4.57;;
7179;SDS011;3631;42.152;24.756;2024-02-16T05:31:51;5.40;;;4.87;;
7179;SDS011;3631;42.152;24.756;2024-02-16T05:34:19;9.90;;;4.80;;
7179;SDS011;3631;42.152;24.756;2024-02-16T05:36:45;6.53;;;5.93;;
7179;SDS011;3631;42.152;24.756;2024-02-16T05:39:13;9.67;;;5.03;;
7179;SDS011;3631;42.152;24.756;2024-02-16T05:41:51;6.23;;;5.00;;
7179;SDS011;3631;42.152;24.756;2024-02-16T05:44:19;8.20;;;5.53;;
7179;SDS011;3631;42.152;24.756;2024-02-16T05:46:46;7.47;;;5.87;;
7179;SDS011;3631;42.152;24.756;2024-02-16T05:49:15;7.37;;;5.40;;
7179;SDS011;3631;42.152;24.756;2024-02-16T05:51:42;8.47;;;5.80;;
7179;SDS011;3631;42.152;24.756;2024-02-16T05:54:25;7.50;;;5.37;;
7179;SDS011;3631;42.152;24.756;2024-02-16T05:56:52;5.87;;;5.30;;
7179;SDS011;3631;42.152;24.756;2024-02-16T05:59:19;6.07;;;5.13;;
7179;SDS011;3631;42.152;24.756;2024-02-16T06:01:47;8.60;;;5.70;;
7179;SDS011;3631;42.152;24.756;2024-02-16T06:04:15;8.83;;;6.40;;
7179;SDS011;3631;42.152;24.756;2024-02-16T06:06:43;9.30;;;6.10;;
7179;SDS011;3631;42.152;24.756;2024-02-16T06:09:10;6.53;;;5.50;;
7179;SDS011;3631;42.152;24.756;2024-02-16T06:11:37;7.60;;;6.07;;
7179;SDS011;3631;42.152;24.756;2024-02-16T06:14:04;6.50;;;5.43;;
7179;SDS011;3631;42.152;24.756;2024-02-16T06:16:31;6.53;;;5.33;;
7179;SDS011;3631;42.152;24.756;2024-02-16T06:18:59;6.57;;;5.23;;
7179;SDS011;3631;42.152;24.756;2024-02-16T06:21:27;10.70;;;5.70;;
7179;SDS011;3631;42.152;24.756;2024-02-16T06:23:54;9.97;;;5.43;;
7179;SDS011;3631;42.152;24.756;2024-02-16T06:26:21;5.70;;;5.07;;
7179;SDS011;3631;42.152;24.756;2024-02-16T06:28:48;6.23;;;5.53;;
7179;SDS011;3631;42.152;24.756;2024-02-16T06:31:14;5.83;;;5.27;;
7179;SDS011;3631;42.152;24.756;2024-02-16T06:33:41;5.70;;;5.17;;
7179;SDS011;3631;42.152;24.756;2024-02-16T06:36:08;6.07;;;5.47;;
7179;SDS011;3631;42.152;24.756;2024-02-16T06:38:37;8.63;;;5.60;;
7179;SDS011;3631;42.152;24.756;2024-02-16T06:41:04;14.70;;;6.07;;
7179;SDS011;3631;42.152;24.756;2024-02-16T06:43:31;7.37;;;5.20;;
7179;SDS011;3631;42.152;24.756;2024-02-16T06:45:58;7.53;;;5.33;;
7179;SDS011;3631;42.152;24.756;2024-02-16T06:48:24;5.90;;;5.40;;
7179;SDS011;3631;42.152;24.756;2024-02-16T06:50:51;7.43;;;5.50;;
7179;SDS011;3631;42.152;24.756;2024-02-16T06:53:19;7.93;;;5.33;;
7179;SDS011;3631;42.152;24.756;2024-02-16T06:55:47;11.43;;;5.57;;
7179;SDS011;3631;42.152;24.756;2024-02-16T06:58:15;5.60;;;5.10;;
7179;SDS011;3631;42.152;24.756;2024-02-16T07:00:42;8.23;;;5.70;;
7179;SDS011;3631;42.152;24.756;2024-02-16T07:03:09;6.27;;;5.17;;
7179;SDS011;3631;42.152;24.756;2024-02-16T07:05:36;7.13;;;5.53;;
7179;SDS011;3631;42.152;24.756;2024-02-16T07:08:02;6.20;;;5.67;;
7179;SDS011;3631;42.152;24.756;2024-02-16T07:10:31;6.60;;;5.97;;
7179;SDS011;3631;42.152;24.756;2024-02-16T07:12:59;8.63;;;6.03;;
7179;SDS011;3631;42.152;24.756;2024-02-16T07:15:26;14.70;;;5.90;;
7179;SDS011;3631;42.152;24.756;2024-02-16T07:17:53;7.53;;;5.63;;
7179;SDS011;3631;42.152;24.756;2024-02-16T07:20:20;6.17;;;5.57;;
7179;SDS011;3631;42.152;24.756;2024-02-16T07:22:47;12.53;;;6.23;;
7179;SDS011;3631;42.152;24.756;2024-02-16T07:25:16;9.03;;;5.87;;
7179;SDS011;3631;42.152;24.756;2024-02-16T07:27:43;6.47;;;5.20;;
7179;SDS011;3631;42.152;24.756;2024-02-16T07:30:12;6.00;;;5.10;;
7179;SDS011;3631;42.152;24.756;2024-02-16T07:32:39;8.53;;;5.53;;
7179;SDS011;3631;42.152;24.756;2024-02-16T07:35:06;12.20;;;5.57;;
7179;SDS011;3631;42.152;24.756;2024-02-16T07:37:35;6.03;;;4.70;;
7179;SDS011;3631;42.152;24.756;2024-02-16T07:40:02;9.07;;;5.20;;
7179;SDS011;3631;42.152;24.756;2024-02-16T07:42:31;7.60;;;5.50;;
7179;SDS011;3631;42.152;24.756;2024-02-16T07:44:58;5.67;;;5.07;;
7179;SDS011;3631;42.152;24.756;2024-02-16T07:47:26;6.33;;;5.00;;
7179;SDS011;3631;42.152;24.756;2024-02-16T07:49:53;7.03;;;5.03;;
7179;SDS011;3631;42.152;24.756;2024-02-16T07:52:20;10.10;;;5.97;;
7179;SDS011;3631;42.152;24.756;2024-02-16T07:54:47;6.87;;;5.30;;
7179;SDS011;3631;42.152;24.756;2024-02-16T07:57:19;5.77;;;5.30;;
7179;SDS011;3631;42.152;24.756;2024-02-16T07:59:46;8.70;;;5.60;;
7179;SDS011;3631;42.152;24.756;2024-02-16T08:02:13;8.30;;;5.23;;
7179;SDS011;3631;42.152;24.756;2024-02-16T08:04:42;7.80;;;5.50;;
7179;SDS011;3631;42.152;24.756;2024-02-16T08:07:09;8.33;;;6.40;;
7179;SDS011;3631;42.152;24.756;2024-02-16T08:09:36;5.57;;;5.00;;
7179;SDS011;3631;42.152;24.756;2024-02-16T08:12:03;10.43;;;5.63;;
7179;SDS011;3631;42.152;24.756;2024-02-16T08:14:32;6.07;;;5.43;;
7179;SDS011;3631;42.152;24.756;2024-02-16T08:16:59;6.67;;;5.70;;
7179;SDS011;3631;42.152;24.756;2024-02-16T08:19:31;19.50;;;6.33;;
7179;SDS011;3631;42.152;24.756;2024-02-16T08:22:00;10.37;;;5.37;;
7179;SDS011;3631;42.152;24.756;2024-02-16T08:24:27;9.30;;;5.37;;
7179;SDS011;3631;42.152;24.756;2024-02-16T08:26:54;7.87;;;6.30;;
7179;SDS011;3631;42.152;24.756;2024-02-16T08:29:21;13.63;;;7.37;;
7179;SDS011;3631;42.152;24.756;2024-02-16T08:31:49;7.13;;;6.43;;
7179;SDS011;3631;42.152;24.756;2024-02-16T08:34:16;6.40;;;5.23;;
7179;SDS011;3631;42.152;24.756;2024-02-16T08:36:43;6.20;;;5.60;;
7179;SDS011;3631;42.152;24.756;2024-02-16T08:39:12;6.50;;;5.90;;
7179;SDS011;3631;42.152;24.756;2024-02-16T08:41:39;6.87;;;5.80;;
7179;SDS011;3631;42.152;24.756;2024-02-16T08:44:07;7.63;;;4.97;;
7179;SDS011;3631;42.152;24.756;2024-02-16T08:46:35;5.60;;;5.07;;
7179;SDS011;3631;42.152;24.756;2024-02-16T08:49:02;5.47;;;4.97;;
7179;SDS011;3631;42.152;24.756;2024-02-16T08:51:31;6.30;;;5.70;;
7179;SDS011;3631;42.152;24.756;2024-02-16T08:53:58;13.10;;;5.57;;
7179;SDS011;3631;42.152;24.756;2024-02-16T08:56:27;5.60;;;5.10;;
7179;SDS011;3631;42.152;24.756;2024-02-16T08:58:54;6.67;;;5.40;;
7179;SDS011;3631;42.152;24.756;2024-02-16T09:01:29;5.67;;;5.20;;
7179;SDS011;3631;42.152;24.756;2024-02-16T09:03:56;6.10;;;5.50;;
7179;SDS011;3631;42.152;24.756;2024-02-16T09:06:23;6.00;;;5.07;;
7179;SDS011;3631;42.152;24.756;2024-02-16T09:08:51;5.57;;;5.07;;
7179;SDS011;3631;42.152;24.756;2024-02-16T09:11:18;7.97;;;5.77;;
7179;SDS011;3631;42.152;24.756;2024-02-16T09:13:46;10.03;;;5.10;;
7179;SDS011;3631;42.152;24.756;2024-02-16T09:16:14;5.97;;;5.43;;
7179;SDS011;3631;42.152;24.756;2024-02-16T09:18:40;10.73;;;5.90;;
7179;SDS011;3631;42.152;24.756;2024-02-16T09:21:07;10.10;;;6.53;;
7179;SDS011;3631;42.152;24.756;2024-02-16T09:23:35;8.93;;;5.73;;
7179;SDS011;3631;42.152;24.756;2024-02-16T09:26:03;9.30;;;5.80;;
7179;SDS011;3631;42.152;24.756;2024-02-16T09:28:30;9.83;;;5.97;;
7179;SDS011;3631;42.152;24.756;2024-02-16T09:30:58;8.83;;;5.90;;
7179;SDS011;3631;42.152;24.756;2024-02-16T09:33:25;17.13;;;7.47;;
7179;SDS011;3631;42.152;24.756;2024-02-16T09:35:53;9.43;;;7.07;;
7179;SDS011;3631;42.152;24.756;2024-02-16T09:38:20;11.33;;;7.07;;
7179;SDS011;3631;42.152;24.756;2024-02-16T09:40:47;6.90;;;5.97;;
7179;SDS011;3631;42.152;24.756;2024-02-16T09:43:23;11.40;;;6.30;;
7179;SDS011;3631;42.152;24.756;2024-02-16T09:45:52;7.50;;;6.30;;
7179;SDS011;3631;42.152;24.756;2024-02-16T09:48:22;10.10;;;5.53;;
7179;SDS011;3631;42.152;24.756;2024-02-16T09:50:50;6.20;;;5.03;;
7179;SDS011;3631;42.152;24.756;2024-02-16T09:53:17;7.47;;;5.87;;
7179;SDS011;3631;42.152;24.756;2024-02-16T09:55:46;6.07;;;4.77;;
7179;SDS011;3631;42.152;24.756;2024-02-16T09:58:14;6.77;;;5.60;;
7179;SDS011;3631;42.152;24.756;2024-02-16T10:00:47;8.03;;;5.07;;
7179;SDS011;3631;42.152;24.756;2024-02-16T10:03:23;7.37;;;4.70;;
7179;SDS011;3631;42.152;24.756;2024-02-16T10:05:51;4.70;;;4.30;;
7179;SDS011;3631;42.152;24.756;2024-02-16T10:08:18;5.50;;;4.70;;
7179;SDS011;3631;42.152;24.756;2024-02-16T10:10:45;6.33;;;4.83;;
7179;SDS011;3631;42.152;24.756;2024-02-16T10:13:15;4.97;;;4.43;;
7179;SDS011;3631;42.152;24.756;2024-02-16T10:15:42;4.43;;;4.03;;
7179;SDS011;3631;42.152;24.756;2024-02-16T10:18:09;6.17;;;4.20;;
7179;SDS011;3631;42.152;24.756;2024-02-16T10:20:38;7.17;;;4.57;;
7179;SDS011;3631;42.152;24.756;2024-02-16T10:23:06;5.43;;;4.80;;
7179;SDS011;3631;42.152;24.756;2024-02-16T10:25:34;5.57;;;4.43;;
7179;SDS011;3631;42.152;24.756;2024-02-16T10:28:03;5.27;;;4.40;;
7179;SDS011;3631;42.152;24.756;2024-02-16T10:30:34;4.93;;;4.17;;
7179;SDS011;3631;42.152;24.756;2024-02-16T10:33:02;8.90;;;3.80;;
7179;SDS011;3631;42.152;24.756;2024-02-16T10:35:30;4.77;;;4.07;;
7179;SDS011;3631;42.152;24.756;2024-02-16T10:38:00;4.07;;;3.07;;
7179;SDS011;3631;42.152;24.756;2024-02-16T10:40:30;5.90;;;3.57;;
7179;SDS011;3631;42.152;24.756;2024-02-16T10:42:59;4.20;;;3.90;;
7179;SDS011;3631;42.152;24.756;2024-02-16T10:45:31;4.27;;;3.37;;
7179;SDS011;3631;42.152;24.756;2024-02-16T10:48:00;3.63;;;3.33;;
7179;SDS011;3631;42.152;24.756;2024-02-16T10:50:27;4.10;;;3.80;;
7179;SDS011;3631;42.152;24.756;2024-02-16T10:52:54;7.33;;;3.67;;
7179;SDS011;3631;42.152;24.756;2024-02-16T10:55:26;4.27;;;3.87;;
7179;SDS011;3631;42.152;24.756;2024-02-16T10:57:55;4.17;;;3.77;;
7179;SDS011;3631;42.152;24.756;2024-02-16T11:00:24;4.77;;;3.80;;
7179;SDS011;3631;42.152;24.756;2024-02-16T11:02:52;7.23;;;3.63;;
7179;SDS011;3631;42.152;24.756;2024-02-16T11:05:31;4.90;;;3.37;;
7179;SDS011;3631;42.152;24.756;2024-02-16T11:07:59;5.07;;;4.67;;
7179;SDS011;3631;42.152;24.756;2024-02-16T11:10:28;5.80;;;3.80;;
7179;SDS011;3631;42.152;24.756;2024-02-16T11:12:59;4.33;;;3.90;;
7179;SDS011;3631;42.152;24.756;2024-02-16T11:15:28;4.20;;;3.60;;
7179;SDS011;3631;42.152;24.756;2024-02-16T11:17:56;5.07;;;4.00;;
7179;SDS011;3631;42.152;24.756;2024-02-16T11:20:24;8.30;;;3.80;;
7179;SDS011;3631;42.152;24.756;2024-02-16T11:22:52;4.03;;;3.63;;
7179;SDS011;3631;42.152;24.756;2024-02-16T11:25:19;4.30;;;3.23;;
7179;SDS011;3631;42.152;24.756;2024-02-16T11:27:58;4.13;;;3.83;;
7179;SDS011;3631;42.152;24.756;2024-02-16T11:30:25;4.70;;;4.20;;
7179;SDS011;3631;42.152;24.756;2024-02-16T11:32:52;4.00;;;3.60;;
7179;SDS011;3631;42.152;24.756;2024-02-16T11:35:19;3.63;;;3.33;;
7179;SDS011;3631;42.152;24.756;2024-02-16T11:37:46;4.27;;;3.60;;
7179;SDS011;3631;42.152;24.756;2024-02-16T11:40:13;3.30;;;3.10;;
7179;SDS011;3631;42.152;24.756;2024-02-16T11:42:41;3.00;;;2.80;;
7179;SDS011;3631;42.152;24.756;2024-02-16T11:45:11;6.63;;;3.10;;
7179;SDS011;3631;42.152;24.756;2024-02-16T11:47:38;3.20;;;3.00;;
7179;SDS011;3631;42.152;24.756;2024-02-16T11:50:06;4.30;;;3.10;;
7179;SDS011;3631;42.152;24.756;2024-02-16T11:52:36;4.20;;;3.00;;
7179;SDS011;3631;42.152;24.756;2024-02-16T11:55:04;5.17;;;2.90;;
7179;SDS011;3631;42.152;24.756;2024-02-16T11:57:34;2.93;;;2.73;;
7179;SDS011;3631;42.152;24.756;2024-02-16T12:00:04;3.00;;;2.80;;
7179;SDS011;3631;42.152;24.756;2024-02-16T12:02:35;2.97;;;2.60;;
7179;SDS011;3631;42.152;24.756;2024-02-16T12:05:03;3.23;;;2.93;;
7179;SDS011;3631;42.152;24.756;2024-02-16T12:07:30;2.67;;;2.57;;
7179;SDS011;3631;42.152;24.756;2024-02-16T12:09:58;3.00;;;2.80;;
7179;SDS011;3631;42.152;24.756;2024-02-16T12:12:26;2.93;;;2.70;;
7179;SDS011;3631;42.152;24.756;2024-02-16T12:14:53;5.33;;;3.00;;
7179;SDS011;3631;42.152;24.756;2024-02-16T12:17:22;3.20;;;2.80;;
7179;SDS011;3631;42.152;24.756;2024-02-16T12:19:50;4.37;;;2.80;;
7179;SDS011;3631;42.152;24.756;2024-02-16T12:22:18;3.37;;;3.17;;
7179;SDS011;3631;42.152;24.756;2024-02-16T12:24:46;3.03;;;2.80;;
7179;SDS011;3631;42.152;24.756;2024-02-16T12:27:13;2.90;;;2.70;;
7179;SDS011;3631;42.152;24.756;2024-02-16T12:29:40;3.23;;;3.03;;
7179;SDS011;3631;42.152;24.756;2024-02-16T12:32:07;3.30;;;3.00;;
7179;SDS011;3631;42.152;24.756;2024-02-16T12:34:36;2.33;;;2.23;;
7179;SDS011;3631;42.152;24.756;2024-02-16T12:37:04;2.90;;;2.70;;
7179;SDS011;3631;42.152;24.756;2024-02-16T12:39:33;3.03;;;2.83;;
7179;SDS011;3631;42.152;24.756;2024-02-16T12:42:00;5.93;;;3.97;;
7179;SDS011;3631;42.152;24.756;2024-02-16T12:44:28;3.43;;;3.23;;
7179;SDS011;3631;42.152;24.756;2024-02-16T12:46:55;3.60;;;3.30;;
7179;SDS011;3631;42.152;24.756;2024-02-16T12:49:22;3.80;;;3.50;;
7179;SDS011;3631;42.152;24.756;2024-02-16T12:51:51;3.00;;;2.80;;
7179;SDS011;3631;42.152;24.756;2024-02-16T12:54:18;4.13;;;3.00;;
7179;SDS011;3631;42.152;24.756;2024-02-16T12:56:45;3.67;;;3.30;;
7179;SDS011;3631;42.152;24.756;2024-02-16T12:59:13;4.67;;;3.20;;
7179;SDS011;3631;42.152;24.756;2024-02-16T13:01:40;4.00;;;3.60;;
7179;SDS011;3631;42.152;24.756;2024-02-16T13:04:08;3.20;;;3.00;;
7179;SDS011;3631;42.152;24.756;2024-02-16T13:06:34;3.10;;;2.90;;
7179;SDS011;3631;42.152;24.756;2024-02-16T13:09:03;3.37;;;2.70;;
7179;SDS011;3631;42.152;24.756;2024-02-16T13:11:30;2.80;;;2.60;;
7179;SDS011;3631;42.152;24.756;2024-02-16T13:13:58;3.20;;;2.90;;
7179;SDS011;3631;42.152;24.756;2024-02-16T13:16:25;4.83;;;3.23;;
7179;SDS011;3631;42.152;24.756;2024-02-16T13:18:53;2.70;;;2.50;;
7179;SDS011;3631;42.152;24.756;2024-02-16T13:21:19;3.23;;;3.00;;
7179;SDS011;3631;42.152;24.756;2024-02-16T13:23:46;3.13;;;2.93;;
7179;SDS011;3631;42.152;24.756;2024-02-16T13:26:15;3.53;;;3.20;;
7179;SDS011;3631;42.152;24.756;2024-02-16T13:28:42;4.40;;;3.10;;
7179;SDS011;3631;42.152;24.756;2024-02-16T13:31:08;3.20;;;2.90;;
7179;SDS011;3631;42.152;24.756;2024-02-16T13:33:36;3.33;;;3.03;;
7179;SDS011;3631;42.152;24.756;2024-02-16T13:36:03;2.80;;;2.60;;
7179;SDS011;3631;42.152;24.756;2024-02-16T13:38:31;5.07;;;3.33;;
7179;SDS011;3631;42.152;24.756;2024-02-16T13:40:57;5.10;;;3.70;;
7179;SDS011;3631;42.152;24.756;2024-02-16T13:43:26;3.77;;;3.47;;
7179;SDS011;3631;42.152;24.756;2024-02-16T13:45:53;6.80;;;3.90;;
7179;SDS011;3631;42.152;24.756;2024-02-16T13:48:23;5.70;;;4.07;;
7179;SDS011;3631;42.152;24.756;2024-02-16T13:50:50;4.03;;;3.67;;
7179;SDS011;3631;42.152;24.756;2024-02-16T13:53:17;5.07;;;4.07;;
7179;SDS011;3631;42.152;24.756;2024-02-16T13:55:44;4.70;;;4.30;;
7179;SDS011;3631;42.152;24.756;2024-02-16T13:58:11;5.10;;;4.03;;
7179;SDS011;3631;42.152;24.756;2024-02-16T14:00:40;5.40;;;4.60;;
7179;SDS011;3631;42.152;24.756;2024-02-16T14:03:08;5.17;;;4.00;;
7179;SDS011;3631;42.152;24.756;2024-02-16T14:05:36;5.23;;;4.37;;
7179;SDS011;3631;42.152;24.756;2024-02-16T14:08:05;6.03;;;4.40;;
7179;SDS011;3631;42.152;24.756;2024-02-16T14:10:36;4.17;;;3.87;;
7179;SDS011;3631;42.152;24.756;2024-02-16T14:13:03;3.90;;;3.60;;
7179;SDS011;3631;42.152;24.756;2024-02-16T14:15:30;9.53;;;4.53;;
7179;SDS011;3631;42.152;24.756;2024-02-16T14:17:58;4.50;;;4.10;;
7179;SDS011;3631;42.152;24.756;2024-02-16T14:20:25;5.50;;;4.53;;
7179;SDS011;3631;42.152;24.756;2024-02-16T14:22:52;5.83;;;5.33;;
7179;SDS011;3631;42.152;24.756;2024-02-16T14:25:19;5.57;;;4.73;;
7179;SDS011;3631;42.152;24.756;2024-02-16T14:27:46;5.00;;;4.53;;
7179;SDS011;3631;42.152;24.756;2024-02-16T14:30:13;4.87;;;4.30;;
7179;SDS011;3631;42.152;24.756;2024-02-16T14:32:40;6.73;;;4.67;;
7179;SDS011;3631;42.152;24.756;2024-02-16T14:35:09;4.53;;;4.13;;
7179;SDS011;3631;42.152;24.756;2024-02-16T14:37:36;4.23;;;3.83;;
7179;SDS011;3631;42.152;24.756;2024-02-16T14:40:04;3.57;;;3.27;;
7179;SDS011;3631;42.152;24.756;2024-02-16T14:42:35;3.77;;;3.47;;
7179;SDS011;3631;42.152;24.756;2024-02-16T14:45:02;3.90;;;3.60;;
7179;SDS011;3631;42.152;24.756;2024-02-16T14:47:29;6.33;;;4.37;;
7179;SDS011;3631;42.152;24.756;2024-02-16T14:49:56;31.87;;;6.50;;
7179;SDS011;3631;42.152;24.756;2024-02-16T14:52:24;4.27;;;3.67;;
7179;SDS011;3631;42.152;24.756;2024-02-16T14:54:51;4.50;;;4.00;;
7179;SDS011;3631;42.152;24.756;2024-02-16T14:57:18;6.10;;;4.17;;
7179;SDS011;3631;42.152;24.756;2024-02-16T14:59:47;4.77;;;4.30;;
7179;SDS011;3631;42.152;24.756;2024-02-16T15:02:16;4.60;;;4.17;;
7179;SDS011;3631;42.152;24.756;2024-02-16T15:04:46;4.50;;;4.10;;